MDST/STI METAR and TAF weather

Enter ICAO airport designator
Station Type Date Time Source
MDST METAR 2019/08/22 20:00 UTC NOAA

MDST 222000Z 15013KT 9999 SCT028 SCT300 34/22 Q1013 NOSIG


Station Type Date Time Source
MDST Decoded METAR 2019/08/22 20:00 UTC NOAA

Station name not available
Aug 22, 2019 - 04:00 PM EDT / 2019.08.22 2000 UTC
Wind: from the SSE (150 degrees) at 15 MPH (13 KT):0
Visibility: greater than 7 mile(s):0
Sky conditions: partly cloudy
Temperature: 93 F (34 C)
Heat index: 100.0 F (37.8 C):1
Dew Point: 71 F (22 C)
Relative Humidity: 49%
Pressure (altimeter): 29.91 in. Hg (1013 hPa)
ob: MDST 222000Z 15013KT 9999 SCT028 SCT300 34/22 Q1013 NOSIG
cycle: 20

Station Type Date Time Source
MDST TAF 2019/08/22 18:47 UTC NOAA

TAF MDST 221600Z 2218/2318 15012KT 9999 FEW026 PROB30 2218/2300 7000 -TSRA FEW018 SCT022 BKN070

Example: see airport list